KABQ/ABQ METAR and TAF weather

Enter ICAO airport designator
Station Type Date Time Source
KABQ METAR 2020/04/04 04:52 UTC NOAA

KABQ 040452Z 09027G38KT 10SM SCT060 BKN100 10/M05 A2995 RMK AO2 PK WND 09038/0443 RAB09E20 SLP097 P0000 T01001050


Station Type Date Time Source
KABQ Decoded METAR 2020/04/04 04:52 UTC NOAA

ALBUQUERQUE INTERNATIONAL AIRPORT, NM, United States (KABQ) 35-02N 106-36W 1618M
Apr 04, 2020 - 12:52 AM EDT / 2020.04.04 0452 UTC
Wind: from the E (090 degrees) at 31 MPH (27 KT) gusting to 44 MPH (38 KT):0
Visibility: 10 mile(s):0
Sky conditions: mostly cloudy
Precipitation last hour: A trace
Temperature: 50.0 F (10.0 C)
Dew Point: 23.0 F (-5.0 C)
Relative Humidity: 34%
Pressure (altimeter): 29.95 in. Hg (1014 hPa)
ob: KABQ 040452Z 09027G38KT 10SM SCT060 BKN100 10/M05 A2995 RMK AO2 PK WND 09038/0443 RAB09E20 SLP097 P0000 T01001050
cycle: 5

Station Type Date Time Source
KABQ TAF 2020/04/03 18:22 UTC NOAA

TAF KABQ 031720Z 0318/0418 24007KT P6SM FEW080
FM032000 22012G20KT P6SM SCT100
FM040000 18012G20KT P6SM BKN100
FM040400 09018G30KT P6SM FEW040 SCT090
FM041200 08012KT P6SM SCT040 SCT090
FM041600 20007KT P6SM SCT080

Example: see airport list